createdAt,value
2023-01-10T00:02:06.599Z,99406.23
2023-01-10T00:04:36.310Z,99408.93
2023-01-10T00:07:05.408Z,99409.02
2023-01-10T00:09:33.632Z,99407.55
2023-01-10T00:12:20.993Z,99412.95
2023-01-10T00:14:49.124Z,99415.53
2023-01-10T00:17:18.946Z,99414.94
2023-01-10T00:19:47.113Z,99417.13
2023-01-10T00:22:18.872Z,99417.80
2023-01-10T00:24:47.201Z,99417.01
2023-01-10T00:27:20.924Z,99421.77
2023-01-10T00:29:53.101Z,99421.71
2023-01-10T00:32:21.920Z,99424.22
2023-01-10T00:34:50.080Z,99425.27
2023-01-10T00:37:18.470Z,99422.36
2023-01-10T00:39:46.547Z,99431.21
2023-01-10T00:42:33.173Z,99429.48
2023-01-10T00:45:01.318Z,99428.88
2023-01-10T00:47:29.598Z,99433.22
2023-01-10T00:49:57.694Z,99432.79
2023-01-10T00:52:25.758Z,99437.53
2023-01-10T00:54:53.920Z,99443.89
2023-01-10T00:57:22.081Z,99445.16
2023-01-10T00:59:50.514Z,99451.08
2023-01-10T01:02:19.534Z,99448.65
2023-01-10T01:04:47.941Z,99451.52
2023-01-10T01:07:16.045Z,99451.48
2023-01-10T01:10:02.817Z,99453.65
2023-01-10T01:12:31.234Z,99461.19
2023-01-10T01:14:59.469Z,99463.73
2023-01-10T01:17:27.650Z,99469.23
2023-01-10T01:19:55.820Z,99471.60
2023-01-10T01:22:23.931Z,99472.20
2023-01-10T01:24:52.069Z,99472.15
2023-01-10T01:27:21.162Z,99478.25
2023-01-10T01:29:49.599Z,99485.31
2023-01-10T01:32:18.119Z,99480.13
2023-01-10T01:34:46.302Z,99491.44
2023-01-10T01:37:14.468Z,99491.17
2023-01-10T01:39:42.644Z,99490.30
2023-01-10T01:42:32.121Z,99494.57
2023-01-10T01:45:23.248Z,99501.05
2023-01-10T01:47:57.977Z,99505.96
2023-01-10T01:50:29.302Z,99505.55
2023-01-10T01:53:00.660Z,99497.45
2023-01-10T01:55:32.355Z,99502.16
2023-01-10T01:58:06.628Z,99505.70
2023-01-10T02:00:36.142Z,99507.59
2023-01-10T02:03:06.450Z,99512.31
2023-01-10T02:05:39.207Z,99511.27
2023-01-10T02:08:07.290Z,99515.95
2023-01-10T02:10:52.887Z,99520.89
2023-01-10T02:13:26.405Z,99521.73
2023-01-10T02:15:55.022Z,99525.02
2023-01-10T02:18:24.478Z,99523.29
2023-01-10T02:21:11.548Z,99522.21
2023-01-10T02:24:00.864Z,99526.36
2023-01-10T02:26:57.809Z,99525.91
2023-01-10T02:29:25.996Z,99522.96
2023-01-10T02:32:09.431Z,99523.70
2023-01-10T02:35:05.694Z,99537.57
2023-01-10T02:38:21.950Z,99539.04
2023-01-10T02:41:02.343Z,99543.67
2023-01-10T02:43:47.592Z,99549.64
2023-01-10T02:46:25.115Z,99553.97
2023-01-10T02:48:54.747Z,99560.21
2023-01-10T02:51:28.569Z,99560.94
2023-01-10T02:54:09.779Z,99568.29
2023-01-10T02:56:59.564Z,99571.27
2023-01-10T02:59:52.716Z,99575.84
2023-01-10T03:03:10.484Z,99583.79
2023-01-10T03:05:53.787Z,99589.05
2023-01-10T03:08:45.767Z,99595.06
2023-01-10T03:11:14.123Z,99597.66
2023-01-10T03:14:01.324Z,99602.20
2023-01-10T03:16:32.268Z,99603.85
2023-01-10T03:19:14.059Z,99602.02
2023-01-10T03:21:44.454Z,99610.59
2023-01-10T03:24:29.043Z,99616.12
2023-01-10T03:27:03.146Z,99622.84
2023-01-10T03:29:43.556Z,99627.86
2023-01-10T03:32:15.690Z,99636.48
2023-01-10T03:34:45.536Z,99641.52
2023-01-10T03:37:25.223Z,99644.75
2023-01-10T03:40:01.095Z,99646.72
2023-01-10T03:42:55.480Z,99654.04
2023-01-10T03:45:34.209Z,99659.02
2023-01-10T03:48:05.557Z,99661.90
2023-01-10T03:50:37.470Z,99669.54
2023-01-10T03:53:06.418Z,99668.87
2023-01-10T03:55:36.214Z,99674.31
2023-01-10T03:58:04.395Z,99678.04
2023-01-10T04:00:32.768Z,99684.54
2023-01-10T04:03:01.045Z,99686.82
2023-01-10T04:05:29.305Z,99696.84
2023-01-10T04:07:57.358Z,99695.88
2023-01-10T04:10:27.418Z,99694.17
2023-01-10T04:12:55.670Z,99694.93
2023-01-10T04:15:23.871Z,99699.01
2023-01-10T04:17:52.124Z,99706.67
2023-01-10T04:20:20.718Z,99710.37
2023-01-10T04:22:50.019Z,99713.36
2023-01-10T04:25:18.359Z,99719.08
2023-01-10T04:27:46.463Z,99721.71
2023-01-10T04:30:14.759Z,99728.24
2023-01-10T04:32:42.915Z,99733.36
2023-01-10T04:35:11.091Z,99737.32
2023-01-10T04:37:39.374Z,99746.45
2023-01-10T04:40:08.677Z,99744.52
2023-01-10T04:42:36.956Z,99754.53
2023-01-10T04:45:05.957Z,99759.35
2023-01-10T04:47:34.426Z,99764.63
2023-01-10T04:50:02.594Z,99768.30
2023-01-10T04:52:30.616Z,99774.58
2023-01-10T04:54:58.935Z,99784.14
2023-01-10T04:57:27.941Z,99784.54
2023-01-10T04:59:56.037Z,99786.41
2023-01-10T05:02:24.403Z,99786.38
2023-01-10T05:04:52.858Z,99792.81
2023-01-10T05:07:21.235Z,99796.61
2023-01-10T05:09:49.622Z,99800.53
2023-01-10T05:12:17.911Z,99802.64
2023-01-10T05:14:46.187Z,99806.87
2023-01-10T05:17:14.554Z,99812.84
2023-01-10T05:19:42.782Z,99817.60
2023-01-10T05:22:11.010Z,99819.33
2023-01-10T05:24:39.281Z,99828.55
2023-01-10T05:27:07.972Z,99834.52
2023-01-10T05:29:36.224Z,99843.95
2023-01-10T05:32:05.147Z,99849.10
2023-01-10T05:34:33.713Z,99849.34
2023-01-10T05:37:02.544Z,99852.62
2023-01-10T05:39:31.026Z,99852.95
2023-01-10T05:41:59.459Z,99855.56
2023-01-10T05:44:27.662Z,99855.79
2023-01-10T05:46:56.429Z,99859.25
2023-01-10T05:49:26.098Z,99861.38
2023-01-10T05:51:55.565Z,99862.87
2023-01-10T05:54:24.863Z,99865.25
2023-01-10T05:56:53.631Z,99867.30
2023-01-10T05:59:28.311Z,99873.97
2023-01-10T06:01:56.904Z,99875.45
2023-01-10T06:04:25.240Z,99878.63
2023-01-10T06:06:53.406Z,99892.15
2023-01-10T06:09:21.633Z,99898.97
2023-01-10T06:11:49.756Z,99905.60
2023-01-10T06:14:19.684Z,99903.08
2023-01-10T06:16:48.564Z,99911.50
2023-01-10T06:19:17.701Z,99918.55
2023-01-10T06:21:45.939Z,99926.13
2023-01-10T06:24:14.192Z,99929.08
2023-01-10T06:26:42.332Z,99941.31
2023-01-10T06:29:10.565Z,99947.48
2023-01-10T06:31:38.854Z,99949.91
2023-01-10T06:34:07.085Z,99957.64
2023-01-10T06:36:35.693Z,99961.27
2023-01-10T06:39:04.240Z,99964.45
2023-01-10T06:41:32.538Z,99955.50
2023-01-10T06:44:00.821Z,99968.27
2023-01-10T06:46:29.199Z,99976.27
2023-01-10T06:48:57.484Z,99984.61
2023-01-10T06:51:25.966Z,99992.20
2023-01-10T06:53:54.335Z,99999.21
2023-01-10T06:56:22.698Z,99998.82
2023-01-10T06:58:51.099Z,100005.85
2023-01-10T07:01:21.888Z,100010.27
2023-01-10T07:03:50.374Z,100012.51
2023-01-10T07:06:19.005Z,100019.77
2023-01-10T07:08:48.094Z,100019.95
2023-01-10T07:11:18.031Z,100025.70
2023-01-10T07:13:46.602Z,100035.71
2023-01-10T07:16:16.495Z,100040.16
2023-01-10T07:18:45.085Z,100041.13
2023-01-10T07:21:14.100Z,100040.77
2023-01-10T07:23:43.595Z,100043.02
2023-01-10T07:26:17.822Z,100030.02
2023-01-10T07:28:51.245Z,100048.38
2023-01-10T07:31:20.962Z,100054.56
2023-01-10T07:33:51.468Z,100052.75
2023-01-10T07:36:20.447Z,100055.74
2023-01-10T07:38:49.129Z,100069.16
2023-01-10T07:41:17.727Z,100070.98
2023-01-10T07:43:46.710Z,100068.27
2023-01-10T07:46:15.353Z,100073.84
2023-01-10T07:48:43.867Z,100075.16
2023-01-10T07:51:12.146Z,100077.15
2023-01-10T07:53:45.771Z,100081.29
2023-01-10T07:56:15.355Z,100088.95
2023-01-10T07:58:43.616Z,100088.89
2023-01-10T08:01:12.352Z,100095.66
2023-01-10T08:03:43.170Z,100098.36
2023-01-10T08:06:12.052Z,100105.23
2023-01-10T08:08:40.490Z,100108.63
2023-01-10T08:11:09.527Z,100112.95
2023-01-10T08:13:38.317Z,100117.52
2023-01-10T08:16:08.810Z,100120.55
2023-01-10T08:18:39.264Z,100128.83
2023-01-10T08:21:10.602Z,100135.23
2023-01-10T08:23:39.307Z,100138.25
2023-01-10T08:26:10.188Z,100141.80
2023-01-10T08:28:38.929Z,100147.73
2023-01-10T08:31:09.690Z,100146.10
2023-01-10T08:33:45.299Z,100146.10
2023-01-10T08:36:22.434Z,100147.50
2023-01-10T08:38:52.001Z,100145.61
2023-01-10T08:41:20.595Z,100150.27
2023-01-10T08:43:52.952Z,100148.22
2023-01-10T08:46:21.676Z,100153.36
2023-01-10T08:48:50.740Z,100157.57
2023-01-10T08:51:19.627Z,100161.80
2023-01-10T08:53:48.111Z,100164.04
2023-01-10T08:56:16.657Z,100167.50
2023-01-10T08:58:45.292Z,100171.67
2023-01-10T09:01:14.834Z,100177.37
2023-01-10T09:03:43.761Z,100180.40
2023-01-10T09:06:12.189Z,100185.94
2023-01-10T09:08:41.049Z,100188.05
2023-01-10T09:11:10.223Z,100192.52
2023-01-10T09:13:40.447Z,100194.63
2023-01-10T09:16:11.179Z,100199.52
2023-01-10T09:18:40.453Z,100202.81
2023-01-10T09:21:12.360Z,100205.17
2023-01-10T09:23:41.684Z,100212.48
2023-01-10T09:26:10.575Z,100210.30
2023-01-10T09:28:39.769Z,100215.70
2023-01-10T09:31:09.731Z,100206.02
2023-01-10T09:33:47.197Z,100213.63
2023-01-10T09:36:16.411Z,100214.63
2023-01-10T09:38:45.864Z,100217.94
2023-01-10T09:41:46.300Z,100216.53
2023-01-10T09:44:18.055Z,100223.92
2023-01-10T09:47:21.545Z,100226.69
2023-01-10T09:50:07.005Z,100232.95
2023-01-10T09:52:43.104Z,100233.45
2023-01-10T09:55:29.536Z,100230.07
2023-01-10T09:58:05.864Z,100236.55
2023-01-10T10:01:22.591Z,100246.55
2023-01-10T10:04:24.136Z,100258.15
2023-01-10T10:06:54.990Z,100267.43
2023-01-10T10:09:29.034Z,100267.83
2023-01-10T10:11:59.186Z,100269.95
2023-01-10T10:15:01.687Z,100271.86
2023-01-10T10:17:53.500Z,100278.00
2023-01-10T10:20:42.267Z,100270.35
2023-01-10T10:23:40.453Z,100286.38
2023-01-10T10:26:33.559Z,100282.02
2023-01-10T10:29:21.115Z,100280.54
2023-01-10T10:31:58.817Z,100286.65
2023-01-10T10:34:39.285Z,100283.38
2023-01-10T10:37:33.271Z,100299.12
2023-01-10T10:40:18.427Z,100297.02
2023-01-10T10:42:51.183Z,100299.10
2023-01-10T10:45:42.160Z,100301.71
2023-01-10T10:48:20.137Z,100291.60
2023-01-10T10:50:52.306Z,100304.60
2023-01-10T10:53:21.208Z,100309.98
2023-01-10T10:55:49.903Z,100312.77
2023-01-10T10:58:19.367Z,100307.61
2023-01-10T11:00:49.309Z,100307.45
2023-01-10T11:03:33.251Z,100309.61
2023-01-10T11:06:03.351Z,100315.20
2023-01-10T11:08:32.447Z,100316.25
2023-01-10T11:11:04.510Z,100314.67
2023-01-10T11:13:33.509Z,100308.23
2023-01-10T11:16:05.072Z,100304.02
2023-01-10T11:18:34.243Z,100300.29
2023-01-10T11:21:08.787Z,100300.94
2023-01-10T11:23:40.312Z,100307.60
2023-01-10T11:26:39.549Z,100309.48
2023-01-10T11:29:26.464Z,100309.81
2023-01-10T11:31:58.199Z,100307.79
2023-01-10T11:34:33.226Z,100308.50
2023-01-10T11:37:05.395Z,100309.43
2023-01-10T11:39:34.048Z,100296.80
2023-01-10T11:42:24.076Z,100317.62
2023-01-10T11:44:52.658Z,100320.80
2023-01-10T11:47:22.250Z,100327.19
2023-01-10T11:49:51.273Z,100324.34
2023-01-10T11:52:26.151Z,100325.73
2023-01-10T11:55:00.709Z,100330.73
2023-01-10T11:57:32.432Z,100334.02
2023-01-10T12:00:05.034Z,100338.41
2023-01-10T12:02:43.662Z,100343.52
2023-01-10T12:05:20.970Z,100340.92
2023-01-10T12:07:58.552Z,100344.45
2023-01-10T12:10:29.093Z,100344.93
2023-01-10T12:13:00.763Z,100349.23
2023-01-10T12:15:32.096Z,100354.65
2023-01-10T12:18:05.402Z,100360.31
2023-01-10T12:20:42.880Z,100363.81
2023-01-10T12:23:17.811Z,100366.20
2023-01-10T12:25:47.691Z,100368.61
2023-01-10T12:28:25.931Z,100369.16
2023-01-10T12:30:58.126Z,100367.60
2023-01-10T12:33:33.142Z,100369.16
2023-01-10T12:36:20.754Z,100376.06
2023-01-10T12:39:05.325Z,100376.49
2023-01-10T12:42:01.483Z,100381.80
2023-01-10T12:44:38.025Z,100383.14
2023-01-10T12:47:35.336Z,100388.30
2023-01-10T12:50:14.201Z,100395.85
2023-01-10T12:52:53.078Z,100397.42
2023-01-10T12:55:25.906Z,100395.35
2023-01-10T12:57:58.367Z,100395.83
2023-01-10T13:00:48.244Z,100394.39
2023-01-10T13:03:21.611Z,100393.56
2023-01-10T13:05:52.396Z,100400.98
2023-01-10T13:08:27.653Z,100410.94
2023-01-10T13:10:59.179Z,100423.20
2023-01-10T13:13:34.839Z,100414.66
2023-01-10T13:16:22.272Z,100428.10
2023-01-10T13:19:12.352Z,100434.98
2023-01-10T13:21:42.680Z,100435.58
2023-01-10T13:24:19.986Z,100442.83
2023-01-10T13:27:03.430Z,100439.18
2023-01-10T13:29:41.105Z,100440.54
2023-01-10T13:32:23.012Z,100446.36
2023-01-10T13:34:52.203Z,100450.21
2023-01-10T13:37:25.581Z,100460.97
2023-01-10T13:39:58.477Z,100465.30
2023-01-10T13:42:45.379Z,100468.33
2023-01-10T13:45:15.392Z,100475.73
2023-01-10T13:47:44.588Z,100474.83
2023-01-10T13:50:36.667Z,100478.97
2023-01-10T13:53:07.075Z,100488.42
2023-01-10T13:55:46.527Z,100491.20
2023-01-10T13:58:18.131Z,100491.38
2023-01-10T14:01:08.448Z,100495.20
2023-01-10T14:03:54.602Z,100500.21
2023-01-10T14:06:29.058Z,100497.44
2023-01-10T14:09:05.541Z,100497.15
2023-01-10T14:11:55.314Z,100499.41
2023-01-10T14:14:40.075Z,100484.86
2023-01-10T14:17:22.979Z,100501.33
2023-01-10T14:20:13.283Z,100501.61
2023-01-10T14:22:57.432Z,100501.34
2023-01-10T14:25:27.762Z,100502.02
2023-01-10T14:27:57.469Z,100502.30
2023-01-10T14:30:38.753Z,100503.31
2023-01-10T14:33:16.259Z,100508.94
2023-01-10T14:35:48.019Z,100511.64
2023-01-10T14:38:24.465Z,100515.10
2023-01-10T14:40:58.061Z,100512.83
2023-01-10T14:43:32.401Z,100520.48
2023-01-10T14:46:11.870Z,100521.23
2023-01-10T14:48:46.568Z,100527.00
2023-01-10T14:51:29.471Z,100528.07
2023-01-10T14:54:12.186Z,100526.69
2023-01-10T14:56:53.935Z,100528.30
2023-01-10T14:59:36.484Z,100522.68
2023-01-10T15:02:14.555Z,100522.77
2023-01-10T15:04:54.808Z,100524.30
2023-01-10T15:07:25.590Z,100528.76
2023-01-10T15:10:02.482Z,100534.33
2023-01-10T15:12:35.042Z,100538.94
2023-01-10T15:15:19.714Z,100542.34
2023-01-10T15:17:49.311Z,100546.61
2023-01-10T15:20:21.756Z,100544.56
2023-01-10T15:22:58.071Z,100548.02
2023-01-10T15:25:31.900Z,100553.34
2023-01-10T15:28:00.542Z,100556.95
2023-01-10T15:30:35.674Z,100559.69
2023-01-10T15:33:14.710Z,100558.48
2023-01-10T15:35:44.700Z,100559.02
2023-01-10T15:38:24.372Z,100556.89
2023-01-10T15:40:59.026Z,100562.79
2023-01-10T15:43:30.290Z,100561.20
2023-01-10T15:46:01.291Z,100561.73
2023-01-10T15:48:54.232Z,100564.80
2023-01-10T15:51:27.353Z,100568.33
2023-01-10T15:53:58.104Z,100570.57
2023-01-10T15:56:38.225Z,100574.38
2023-01-10T15:59:33.146Z,100579.95
2023-01-10T16:02:22.617Z,100581.00
2023-01-10T16:04:58.291Z,100579.11
2023-01-10T16:07:33.486Z,100584.05
2023-01-10T16:10:17.200Z,100592.38
2023-01-10T16:13:04.439Z,100593.28
2023-01-10T16:15:36.094Z,100595.02
2023-01-10T16:18:05.716Z,100594.11
2023-01-10T16:20:46.130Z,100590.08
2023-01-10T16:23:25.043Z,100590.88
2023-01-10T16:25:57.954Z,100591.02
2023-01-10T16:28:31.228Z,100594.38
2023-01-10T16:31:00.787Z,100594.89
2023-01-10T16:33:30.081Z,100599.92
2023-01-10T16:36:00.800Z,100605.62
2023-01-10T16:38:30.386Z,100606.72
2023-01-10T16:41:23.539Z,100596.96
2023-01-10T16:43:54.407Z,100609.29
2023-01-10T16:46:24.216Z,100613.30
2023-01-10T16:48:55.478Z,100621.69
2023-01-10T16:51:30.503Z,100623.92
2023-01-10T16:53:59.216Z,100625.02
2023-01-10T16:56:29.479Z,100621.29
2023-01-10T16:58:58.721Z,100622.40
2023-01-10T17:01:35.161Z,100630.47
2023-01-10T17:04:07.455Z,100634.79
2023-01-10T17:06:37.546Z,100641.67
2023-01-10T17:09:06.659Z,100640.61
2023-01-10T17:11:40.989Z,100655.87
2023-01-10T17:14:14.875Z,100657.69
2023-01-10T17:16:44.212Z,100664.29
2023-01-10T17:19:13.502Z,100665.50
2023-01-10T17:21:43.285Z,100664.11
2023-01-10T17:24:13.117Z,100646.27
2023-01-10T17:26:42.057Z,100665.59
2023-01-10T17:29:10.674Z,100665.67
2023-01-10T17:31:40.178Z,100671.27
2023-01-10T17:34:10.247Z,100669.38
2023-01-10T17:36:40.462Z,100659.04
2023-01-10T17:39:10.024Z,100666.64
2023-01-10T17:41:39.021Z,100669.50
2023-01-10T17:44:08.536Z,100678.27
2023-01-10T17:46:37.218Z,100678.30
2023-01-10T17:49:06.050Z,100682.56
2023-01-10T17:51:35.639Z,100682.10
2023-01-10T17:54:05.141Z,100683.02
2023-01-10T17:56:34.527Z,100684.51
2023-01-10T17:59:04.214Z,100684.29
2023-01-10T18:01:33.385Z,100685.89
2023-01-10T18:04:02.842Z,100685.13
2023-01-10T18:06:31.811Z,100687.04
2023-01-10T18:09:02.045Z,100693.48
2023-01-10T18:11:33.294Z,100692.84
2023-01-10T18:14:22.173Z,100690.17
2023-01-10T18:16:51.277Z,100691.21
2023-01-10T18:19:20.735Z,100690.16
2023-01-10T18:21:49.739Z,100693.91
2023-01-10T18:24:19.211Z,100694.81
2023-01-10T18:26:48.951Z,100693.11
2023-01-10T18:29:18.608Z,100693.64
2023-01-10T18:31:51.681Z,100692.77
2023-01-10T18:34:21.657Z,100690.73
2023-01-10T18:36:51.158Z,100696.65
2023-01-10T18:39:21.997Z,100694.52
2023-01-10T18:41:51.469Z,100691.20
2023-01-10T18:44:21.406Z,100692.67
2023-01-10T18:46:52.119Z,100701.16
2023-01-10T18:49:23.128Z,100705.91
2023-01-10T18:51:53.806Z,100705.11
2023-01-10T18:54:23.805Z,100707.63
2023-01-10T18:56:55.082Z,100705.97
2023-01-10T18:59:26.641Z,100707.73
2023-01-10T19:01:56.831Z,100707.88
2023-01-10T19:04:26.428Z,100706.67
2023-01-10T19:06:57.800Z,100716.16
2023-01-10T19:09:28.697Z,100717.41
2023-01-10T19:11:57.507Z,100720.83
2023-01-10T19:14:27.573Z,100720.96
2023-01-10T19:16:58.397Z,100722.12
2023-01-10T19:19:28.849Z,100721.19
2023-01-10T19:21:58.389Z,100722.67
2023-01-10T19:24:30.534Z,100718.25
2023-01-10T19:27:02.459Z,100713.38
2023-01-10T19:29:38.700Z,100714.34
2023-01-10T19:32:10.376Z,100712.56
2023-01-10T19:34:43.350Z,100714.10
2023-01-10T19:37:15.892Z,100712.70
2023-01-10T19:39:52.658Z,100713.15
2023-01-10T19:42:28.711Z,100714.75
2023-01-10T19:45:00.809Z,100701.65
2023-01-10T19:47:35.751Z,100710.49
2023-01-10T19:50:08.105Z,100711.09
2023-01-10T19:52:40.229Z,100710.77
2023-01-10T19:55:12.979Z,100713.48
2023-01-10T19:57:45.296Z,100712.04
2023-01-10T20:00:18.067Z,100714.73
2023-01-10T20:02:49.414Z,100721.64
2023-01-10T20:05:24.889Z,100724.27
2023-01-10T20:07:57.494Z,100728.35
2023-01-10T20:10:34.891Z,100724.80
2023-01-10T20:13:10.186Z,100723.52
2023-01-10T20:15:46.298Z,100725.46
2023-01-10T20:18:19.547Z,100727.43
2023-01-10T20:20:54.582Z,100725.89
2023-01-10T20:23:33.533Z,100728.29
2023-01-10T20:26:10.442Z,100726.22
2023-01-10T20:28:44.886Z,100716.67
2023-01-10T20:31:21.587Z,100729.98
2023-01-10T20:33:51.785Z,100728.02
2023-01-10T20:36:25.129Z,100727.29
2023-01-10T20:38:55.814Z,100727.13
2023-01-10T20:41:29.880Z,100729.09
2023-01-10T20:44:01.342Z,100726.69
2023-01-10T20:46:34.639Z,100724.73
2023-01-10T20:49:04.709Z,100729.55
2023-01-10T20:51:36.909Z,100724.73
2023-01-10T20:54:09.665Z,100723.96
2023-01-10T20:56:41.883Z,100716.86
2023-01-10T20:59:13.093Z,100714.67
2023-01-10T21:01:50.595Z,100714.08
2023-01-10T21:04:22.070Z,100715.04
2023-01-10T21:06:55.126Z,100713.45
2023-01-10T21:09:31.894Z,100716.97
2023-01-10T21:12:22.126Z,100709.83
2023-01-10T21:15:00.643Z,100709.67
2023-01-10T21:17:34.736Z,100710.79
2023-01-10T21:20:06.059Z,100710.40
2023-01-10T21:22:38.441Z,100705.17
2023-01-10T21:25:10.123Z,100701.70
2023-01-10T21:27:46.189Z,100703.15
2023-01-10T21:30:21.583Z,100701.60
2023-01-10T21:32:51.831Z,100704.66
2023-01-10T21:35:31.055Z,100703.18
2023-01-10T21:38:15.797Z,100701.81
2023-01-10T21:40:46.718Z,100697.98
2023-01-10T21:43:18.682Z,100698.79
2023-01-10T21:45:52.342Z,100699.25
2023-01-10T21:48:26.500Z,100700.31
2023-01-10T21:50:58.639Z,100702.39
2023-01-10T21:53:33.450Z,100700.70
2023-01-10T21:56:04.355Z,100701.86
2023-01-10T21:58:35.992Z,100705.05
2023-01-10T22:01:07.127Z,100709.19
2023-01-10T22:03:38.588Z,100708.08
2023-01-10T22:06:15.154Z,100709.88
2023-01-10T22:08:50.994Z,100710.23
2023-01-10T22:11:25.020Z,100708.71
2023-01-10T22:13:58.063Z,100706.09
2023-01-10T22:16:30.915Z,100705.55
2023-01-10T22:19:05.057Z,100705.77
2023-01-10T22:21:38.840Z,100700.39
2023-01-10T22:24:12.083Z,100701.50
2023-01-10T22:26:45.843Z,100699.02
2023-01-10T22:29:17.398Z,100697.39
2023-01-10T22:31:49.755Z,100696.08
2023-01-10T22:34:25.080Z,100693.60
2023-01-10T22:36:56.431Z,100688.30
2023-01-10T22:39:28.552Z,100681.29
2023-01-10T22:41:59.588Z,100680.02
2023-01-10T22:44:31.143Z,100680.60
2023-01-10T22:47:01.395Z,100683.41
2023-01-10T22:49:34.288Z,100690.14
2023-01-10T22:52:04.666Z,100691.45
2023-01-10T22:54:36.236Z,100691.23
2023-01-10T22:57:07.003Z,100691.55
2023-01-10T22:59:37.707Z,100687.57
2023-01-10T23:02:10.578Z,100684.43
2023-01-10T23:04:43.074Z,100682.99
2023-01-10T23:07:13.779Z,100684.55
2023-01-10T23:09:44.899Z,100663.05
2023-01-10T23:12:16.276Z,100680.48
2023-01-10T23:14:47.239Z,100682.73
2023-01-10T23:17:20.800Z,100679.66
2023-01-10T23:19:52.190Z,100680.30
2023-01-10T23:22:24.507Z,100679.20
2023-01-10T23:25:01.706Z,100676.97
2023-01-10T23:27:32.859Z,100676.85
2023-01-10T23:30:08.743Z,100678.87
2023-01-10T23:32:43.428Z,100682.33
2023-01-10T23:35:17.740Z,100681.64
2023-01-10T23:37:49.107Z,100676.48
2023-01-10T23:40:20.857Z,100675.80
2023-01-10T23:42:52.641Z,100678.64
2023-01-10T23:45:26.797Z,100681.43
2023-01-10T23:47:58.194Z,100679.30
2023-01-10T23:50:29.957Z,100670.00
2023-01-10T23:53:02.369Z,100667.16
2023-01-10T23:55:36.431Z,100661.69
2023-01-10T23:58:10.144Z,100656.67
